createdAt,value
2018-06-14T00:00:37.226Z,84.80
2018-06-14T00:03:05.758Z,85.00
2018-06-14T00:05:34.337Z,85.00
2018-06-14T00:08:02.847Z,85.40
2018-06-14T00:10:31.373Z,85.20
2018-06-14T00:12:59.961Z,85.30
2018-06-14T00:15:28.474Z,85.80
2018-06-14T00:17:56.982Z,85.50
2018-06-14T00:20:25.487Z,85.90
2018-06-14T00:22:54.008Z,85.50
2018-06-14T00:25:22.516Z,85.40
2018-06-14T00:27:51.000Z,85.20
2018-06-14T00:30:19.557Z,85.40
2018-06-14T00:32:48.125Z,85.30
2018-06-14T00:35:16.654Z,85.40
2018-06-14T00:37:45.177Z,85.00
2018-06-14T00:40:13.741Z,85.70
2018-06-14T00:42:42.249Z,85.30
2018-06-14T00:45:10.731Z,85.40
2018-06-14T00:47:39.248Z,85.60
2018-06-14T00:50:07.798Z,86.00
2018-06-14T00:52:36.339Z,85.90
2018-06-14T00:55:04.895Z,86.20
2018-06-14T00:57:33.516Z,86.10
2018-06-14T01:00:02.013Z,86.20
2018-06-14T01:02:30.554Z,86.30
2018-06-14T01:04:59.029Z,86.40
2018-06-14T01:07:27.536Z,86.60
2018-06-14T01:09:56.057Z,86.60
2018-06-14T01:12:24.572Z,86.30
2018-06-14T01:14:53.096Z,86.50
2018-06-14T01:17:21.666Z,87.00
2018-06-14T01:19:50.206Z,86.70
2018-06-14T01:22:18.740Z,86.70
2018-06-14T01:24:47.243Z,86.70
2018-06-14T01:27:15.770Z,86.70
2018-06-14T01:29:44.347Z,86.60
2018-06-14T01:32:12.851Z,86.50
2018-06-14T01:34:41.360Z,86.70
2018-06-14T01:37:09.858Z,86.90
2018-06-14T01:39:38.342Z,86.90
2018-06-14T01:42:06.888Z,87.10
2018-06-14T01:44:35.453Z,86.80
2018-06-14T01:47:03.950Z,86.60
2018-06-14T01:49:32.476Z,87.00
2018-06-14T01:52:01.032Z,87.00
2018-06-14T01:54:29.524Z,87.00
2018-06-14T01:56:58.026Z,86.70
2018-06-14T02:01:54.895Z,86.80
2018-06-14T02:04:23.422Z,86.80
2018-06-14T02:06:51.925Z,86.80
2018-06-14T02:09:20.422Z,86.70
2018-06-14T02:11:48.951Z,86.90
2018-06-14T02:14:17.448Z,86.70
2018-06-14T02:16:45.966Z,86.60
2018-06-14T02:19:14.509Z,86.70
2018-06-14T02:21:43.033Z,87.10
2018-06-14T02:24:11.605Z,87.40
2018-06-14T02:26:40.119Z,87.30
2018-06-14T02:29:08.646Z,86.90
2018-06-14T02:31:37.137Z,87.30
2018-06-14T02:34:05.727Z,86.40
2018-06-14T02:36:34.319Z,87.20
2018-06-14T02:39:02.910Z,86.50
2018-06-14T02:41:31.455Z,86.00
2018-06-14T02:44:00.023Z,85.90
2018-06-14T02:46:28.524Z,86.40
2018-06-14T02:48:57.018Z,86.60
2018-06-14T02:51:25.558Z,86.30
2018-06-14T02:53:54.098Z,86.50
2018-06-14T02:56:22.580Z,86.50
2018-06-14T02:58:51.168Z,86.50
2018-06-14T03:01:19.709Z,86.40
2018-06-14T03:03:48.247Z,86.40
2018-06-14T03:06:16.754Z,86.60
2018-06-14T03:08:45.304Z,87.00
2018-06-14T03:11:13.852Z,87.20
2018-06-14T03:13:42.405Z,86.90
2018-06-14T03:16:10.935Z,87.50
2018-06-14T03:18:39.482Z,87.10
2018-06-14T03:21:08.032Z,86.70
2018-06-14T03:23:36.570Z,87.00
2018-06-14T03:26:05.175Z,87.20
2018-06-14T03:28:33.690Z,87.10
2018-06-14T03:31:02.255Z,87.00
2018-06-14T03:33:30.757Z,87.00
2018-06-14T03:35:59.291Z,86.80
2018-06-14T03:38:27.788Z,86.80
2018-06-14T03:40:56.323Z,87.00
2018-06-14T03:43:24.856Z,87.00
2018-06-14T03:45:53.351Z,86.60
2018-06-14T03:48:21.939Z,86.30
2018-06-14T03:50:50.514Z,86.10
2018-06-14T03:53:19.025Z,86.40
2018-06-14T03:55:47.539Z,86.10
2018-06-14T03:58:16.547Z,86.50
2018-06-14T04:00:45.083Z,86.40
2018-06-14T04:03:13.602Z,86.60
2018-06-14T04:05:42.105Z,86.40
2018-06-14T04:08:10.607Z,87.00
2018-06-14T04:10:39.097Z,86.40
2018-06-14T04:13:07.618Z,86.60
2018-06-14T04:15:36.105Z,87.00
2018-06-14T04:18:04.627Z,87.00
2018-06-14T04:20:34.977Z,85.90
2018-06-14T04:23:03.404Z,86.20
2018-06-14T04:25:31.916Z,86.40
2018-06-14T04:28:00.398Z,86.50
2018-06-14T04:30:28.902Z,86.10
2018-06-14T04:32:57.434Z,85.90
2018-06-14T04:35:25.958Z,86.00
2018-06-14T04:37:54.493Z,86.30
2018-06-14T04:40:22.992Z,86.30
2018-06-14T04:42:51.509Z,85.70
2018-06-14T04:45:20.058Z,85.60
2018-06-14T04:47:48.532Z,85.70
2018-06-14T04:50:17.100Z,86.30
2018-06-14T04:52:45.622Z,85.80
2018-06-14T04:55:14.201Z,85.90
2018-06-14T04:57:42.736Z,86.10
2018-06-14T05:00:11.245Z,86.10
2018-06-14T05:02:39.749Z,86.10
2018-06-14T05:05:08.814Z,86.80
2018-06-14T05:07:37.357Z,86.10
2018-06-14T05:10:05.898Z,85.30
2018-06-14T05:12:34.412Z,85.10
2018-06-14T05:15:03.056Z,85.70
2018-06-14T05:17:31.543Z,85.60
2018-06-14T05:20:00.107Z,85.60
2018-06-14T05:22:28.592Z,86.60
2018-06-14T05:24:57.090Z,85.50
2018-06-14T05:27:25.694Z,85.00
2018-06-14T05:29:54.194Z,85.30
2018-06-14T05:32:22.678Z,85.60
2018-06-14T05:34:51.182Z,85.20
2018-06-14T05:37:19.681Z,85.20
2018-06-14T05:39:48.198Z,84.80
2018-06-14T05:42:16.718Z,85.10
2018-06-14T05:44:45.262Z,84.10
2018-06-14T05:47:13.815Z,84.80
2018-06-14T05:49:42.327Z,84.80
2018-06-14T05:52:10.875Z,84.60
2018-06-14T05:54:39.643Z,84.30
2018-06-14T05:57:08.245Z,84.00
2018-06-14T05:59:36.760Z,84.80
2018-06-14T06:02:05.367Z,84.30
2018-06-14T06:04:33.873Z,84.60
2018-06-14T06:07:02.436Z,83.70
2018-06-14T06:09:30.909Z,84.40
2018-06-14T06:11:59.449Z,84.70
2018-06-14T06:14:27.967Z,84.70
2018-06-14T06:16:56.500Z,83.90
2018-06-14T06:19:25.530Z,84.90
2018-06-14T06:21:54.062Z,85.30
2018-06-14T06:24:22.626Z,84.40
2018-06-14T06:26:51.168Z,84.40
2018-06-14T06:29:19.670Z,85.40
2018-06-14T06:31:48.183Z,84.60
2018-06-14T06:34:16.747Z,83.60
2018-06-14T06:36:45.261Z,84.00
2018-06-14T06:39:13.798Z,83.20
2018-06-14T06:41:42.319Z,82.90
2018-06-14T06:44:10.930Z,83.50
2018-06-14T06:46:39.472Z,83.40
2018-06-14T06:49:08.020Z,82.70
2018-06-14T06:51:36.538Z,82.50
2018-06-14T06:54:05.079Z,82.20
2018-06-14T06:56:33.735Z,83.30
2018-06-14T06:59:02.243Z,82.10
2018-06-14T07:01:30.792Z,81.80
2018-06-14T07:03:59.330Z,81.60
2018-06-14T07:06:27.872Z,81.40
2018-06-14T07:08:56.341Z,81.00
2018-06-14T07:11:24.892Z,80.20
2018-06-14T07:13:53.342Z,80.00
2018-06-14T07:16:21.945Z,81.00
2018-06-14T07:18:50.444Z,78.80
2018-06-14T07:21:19.002Z,78.90
2018-06-14T07:23:47.490Z,80.10
2018-06-14T07:26:16.014Z,80.40
2018-06-14T07:28:44.522Z,78.90
2018-06-14T07:31:13.066Z,79.10
2018-06-14T07:33:41.610Z,78.80
2018-06-14T07:36:10.135Z,79.20
2018-06-14T07:38:38.630Z,78.00
2018-06-14T07:41:07.154Z,78.60
2018-06-14T07:43:35.732Z,77.60
2018-06-14T07:46:04.281Z,78.40
2018-06-14T07:48:32.868Z,77.40
2018-06-14T07:51:01.488Z,77.50
2018-06-14T07:53:30.374Z,76.70
2018-06-14T07:55:59.040Z,77.60
2018-06-14T07:58:27.611Z,76.50
2018-06-14T08:00:56.150Z,76.10
2018-06-14T08:03:24.680Z,76.20
2018-06-14T08:05:53.190Z,76.60
2018-06-14T08:08:21.707Z,77.20
2018-06-14T08:10:50.194Z,75.20
2018-06-14T08:13:18.706Z,77.50
2018-06-14T08:15:47.181Z,76.80
2018-06-14T08:18:15.823Z,75.40
2018-06-14T08:20:44.329Z,75.20
2018-06-14T08:23:12.850Z,74.80
2018-06-14T08:25:41.396Z,73.20
2018-06-14T08:28:09.940Z,73.00
2018-06-14T08:30:38.450Z,72.50
2018-06-14T08:33:06.967Z,70.20
2018-06-14T08:35:35.471Z,71.70
2018-06-14T08:38:04.047Z,67.20
2018-06-14T08:40:32.569Z,68.20
2018-06-14T08:43:01.080Z,69.20
2018-06-14T08:45:29.636Z,69.80
2018-06-14T08:47:58.159Z,69.60
2018-06-14T08:50:26.710Z,70.20
2018-06-14T08:52:55.218Z,69.10
2018-06-14T08:55:23.714Z,67.80
2018-06-14T08:57:52.220Z,68.40
2018-06-14T09:00:20.737Z,67.80
2018-06-14T09:02:49.231Z,66.00
2018-06-14T09:05:17.726Z,66.30
2018-06-14T09:07:46.223Z,67.20
2018-06-14T09:10:14.758Z,66.70
2018-06-14T09:12:43.296Z,65.00
2018-06-14T09:15:11.778Z,66.80
2018-06-14T09:17:40.308Z,65.70
2018-06-14T09:20:08.803Z,66.70
2018-06-14T09:22:37.413Z,66.20
2018-06-14T09:25:05.927Z,67.00
2018-06-14T09:27:34.404Z,66.30
2018-06-14T09:30:02.904Z,65.70
2018-06-14T09:34:59.580Z,64.70
2018-06-14T09:37:28.102Z,64.90
2018-06-14T09:39:56.602Z,66.90
2018-06-14T09:42:25.119Z,64.50
2018-06-14T09:44:53.674Z,66.10
2018-06-14T09:47:22.194Z,63.80
2018-06-14T09:49:50.698Z,65.90
2018-06-14T09:52:19.232Z,63.90
2018-06-14T09:54:47.743Z,64.90
2018-06-14T09:57:16.875Z,62.80
2018-06-14T09:59:45.398Z,63.10
2018-06-14T10:02:13.955Z,65.50
2018-06-14T10:04:42.493Z,64.60
2018-06-14T10:07:11.039Z,62.70
2018-06-14T10:09:39.578Z,60.20
2018-06-14T10:12:08.078Z,61.20
2018-06-14T10:14:36.603Z,61.60
2018-06-14T10:17:05.531Z,59.90
2018-06-14T10:19:34.095Z,60.50
2018-06-14T10:22:02.658Z,60.00
2018-06-14T10:24:31.201Z,59.00
2018-06-14T10:26:59.774Z,57.60
2018-06-14T10:29:28.401Z,57.10
2018-06-14T10:31:56.857Z,59.00
2018-06-14T10:34:25.366Z,59.40
2018-06-14T10:36:53.858Z,55.90
2018-06-14T10:39:22.378Z,58.20
2018-06-14T10:41:51.627Z,56.90
2018-06-14T10:44:20.142Z,55.60
2018-06-14T10:46:48.676Z,56.20
2018-06-14T10:49:17.241Z,56.10
2018-06-14T10:51:45.789Z,56.10
2018-06-14T10:54:14.310Z,55.30
2018-06-14T10:56:42.834Z,58.20
2018-06-14T10:59:11.373Z,55.90
2018-06-14T11:01:39.931Z,56.90
2018-06-14T11:04:08.490Z,57.30
2018-06-14T11:06:37.042Z,58.10
2018-06-14T11:09:08.646Z,57.70
2018-06-14T11:11:37.288Z,57.30
2018-06-14T11:14:05.910Z,56.90
2018-06-14T11:16:34.458Z,56.20
2018-06-14T11:19:03.035Z,56.70
2018-06-14T11:21:31.585Z,56.20
2018-06-14T11:24:00.086Z,57.50
2018-06-14T11:26:29.041Z,57.30
2018-06-14T11:28:57.765Z,56.90
2018-06-14T11:31:26.312Z,57.70
2018-06-14T11:33:54.999Z,58.20
2018-06-14T11:36:23.524Z,58.70
2018-06-14T11:38:52.134Z,61.30
2018-06-14T11:41:20.798Z,60.60
2018-06-14T11:43:49.309Z,60.60
2018-06-14T11:46:17.832Z,60.40
2018-06-14T11:48:46.404Z,59.80
2018-06-14T11:51:14.953Z,59.70
2018-06-14T11:53:43.585Z,61.70
2018-06-14T11:56:12.168Z,58.80
2018-06-14T11:58:40.729Z,56.70
2018-06-14T12:01:09.292Z,58.10
2018-06-14T12:03:37.834Z,57.70
2018-06-14T12:06:06.438Z,58.00
2018-06-14T12:08:34.968Z,58.50
2018-06-14T12:11:03.614Z,56.90
2018-06-14T12:13:32.170Z,57.50
2018-06-14T12:16:00.795Z,58.00
2018-06-14T12:18:29.351Z,56.70
2018-06-14T12:20:57.912Z,56.10
2018-06-14T12:23:26.467Z,57.00
2018-06-14T12:25:55.069Z,57.80
2018-06-14T12:28:23.632Z,56.60
2018-06-14T12:30:52.186Z,56.80
2018-06-14T12:33:20.784Z,55.70
2018-06-14T12:35:49.291Z,56.90
2018-06-14T12:38:17.789Z,55.70
2018-06-14T12:40:46.380Z,57.60
2018-06-14T12:43:14.964Z,55.40
2018-06-14T12:48:11.843Z,55.00
2018-06-14T12:50:40.367Z,51.90
2018-06-14T12:53:08.933Z,50.20
2018-06-14T12:55:37.588Z,52.70
2018-06-14T12:58:06.206Z,52.60
2018-06-14T13:00:34.726Z,52.10
2018-06-14T13:03:03.362Z,50.50
2018-06-14T13:05:32.018Z,54.20
2018-06-14T13:08:00.549Z,54.30
2018-06-14T13:10:29.217Z,53.10
2018-06-14T13:12:57.875Z,53.00
2018-06-14T13:15:26.402Z,56.30
2018-06-14T13:17:54.933Z,57.90
2018-06-14T13:20:23.435Z,57.20
2018-06-14T13:22:52.063Z,54.60
2018-06-14T13:25:20.596Z,53.20
2018-06-14T13:27:49.158Z,54.70
2018-06-14T13:30:17.738Z,54.30
2018-06-14T13:32:46.246Z,52.80
2018-06-14T13:35:14.905Z,52.90
2018-06-14T13:37:43.480Z,54.20
2018-06-14T13:40:12.028Z,55.20
2018-06-14T13:42:40.620Z,57.10
2018-06-14T13:45:09.171Z,53.80
2018-06-14T13:47:37.711Z,53.50
2018-06-14T13:50:06.299Z,53.80
2018-06-14T13:52:34.935Z,53.40
2018-06-14T13:55:03.593Z,53.80
2018-06-14T13:57:32.154Z,57.60
2018-06-14T14:00:00.661Z,55.00
2018-06-14T14:02:29.276Z,55.30
2018-06-14T14:04:57.804Z,55.30
2018-06-14T14:07:26.355Z,53.80
2018-06-14T14:09:55.603Z,54.00
2018-06-14T14:12:24.303Z,52.00
2018-06-14T14:14:52.917Z,53.00
2018-06-14T14:17:21.494Z,51.10
2018-06-14T14:19:50.074Z,53.40
2018-06-14T14:22:19.102Z,53.50
2018-06-14T14:24:47.618Z,52.30
2018-06-14T14:27:16.142Z,54.00
2018-06-14T14:29:44.664Z,54.20
2018-06-14T14:32:13.194Z,54.50
2018-06-14T14:34:41.766Z,53.40
2018-06-14T14:37:10.370Z,51.30
2018-06-14T14:39:38.926Z,51.50
2018-06-14T14:42:07.502Z,54.50
2018-06-14T14:44:36.041Z,52.20
2018-06-14T14:47:04.589Z,54.00
2018-06-14T14:49:33.118Z,57.40
2018-06-14T14:52:01.667Z,55.80
2018-06-14T14:54:30.156Z,53.40
2018-06-14T14:56:58.715Z,51.90
2018-06-14T14:59:27.270Z,53.30
2018-06-14T15:01:55.814Z,55.00
2018-06-14T15:04:24.333Z,55.00
2018-06-14T15:06:52.849Z,55.20
2018-06-14T15:11:49.558Z,54.50
2018-06-14T15:14:18.125Z,53.60
2018-06-14T15:16:46.666Z,51.90
2018-06-14T15:19:15.186Z,50.40
2018-06-14T15:21:43.690Z,53.10
2018-06-14T15:24:12.242Z,51.10
2018-06-14T15:26:40.775Z,51.50
2018-06-14T15:29:09.318Z,50.90
2018-06-14T15:31:37.882Z,52.60
2018-06-14T15:34:06.408Z,51.60
2018-06-14T15:36:34.926Z,52.10
2018-06-14T15:39:03.572Z,51.50
2018-06-14T15:41:32.098Z,50.90
2018-06-14T15:44:00.642Z,50.50
2018-06-14T15:46:29.155Z,50.10
2018-06-14T15:48:57.705Z,53.40
2018-06-14T15:51:26.224Z,51.10
2018-06-14T15:53:54.904Z,49.50
2018-06-14T15:56:40.027Z,50.30
2018-06-14T15:59:11.669Z,52.10
2018-06-14T16:01:41.254Z,50.40
2018-06-14T16:04:10.265Z,50.30
2018-06-14T16:06:38.809Z,49.60
2018-06-14T16:09:08.530Z,50.60
2018-06-14T16:11:37.069Z,50.70
2018-06-14T16:14:06.159Z,48.80
2018-06-14T16:16:34.904Z,50.00
2018-06-14T16:19:04.014Z,50.40
2018-06-14T16:21:33.025Z,50.00
2018-06-14T16:24:01.580Z,48.50
2018-06-14T16:26:30.098Z,49.10
2018-06-14T16:28:59.727Z,50.50
2018-06-14T16:31:29.184Z,52.40
2018-06-14T16:33:57.808Z,49.80
2018-06-14T16:36:26.374Z,50.90
2018-06-14T16:38:54.922Z,51.40
2018-06-14T16:41:23.470Z,53.50
2018-06-14T16:43:52.665Z,51.00
2018-06-14T16:46:21.188Z,51.50
2018-06-14T16:48:50.393Z,51.80
2018-06-14T16:51:19.213Z,53.00
2018-06-14T16:53:47.696Z,49.70
2018-06-14T16:56:16.254Z,49.30
2018-06-14T16:58:44.772Z,50.30
2018-06-14T17:01:13.313Z,51.40
2018-06-14T17:03:41.900Z,52.20
2018-06-14T17:06:10.503Z,51.20
2018-06-14T17:08:39.026Z,50.80
2018-06-14T17:11:07.554Z,51.60
2018-06-14T17:13:36.117Z,51.50
2018-06-14T17:16:04.741Z,51.50
2018-06-14T17:18:33.329Z,49.60
2018-06-14T17:21:01.882Z,50.20
2018-06-14T17:23:30.408Z,50.20
2018-06-14T17:25:58.974Z,51.70
2018-06-14T17:28:27.470Z,51.90
2018-06-14T17:30:56.626Z,52.20
2018-06-14T17:33:25.143Z,51.50
2018-06-14T17:35:53.681Z,50.80
2018-06-14T17:38:22.227Z,51.90
2018-06-14T17:40:50.794Z,51.60
2018-06-14T17:43:19.357Z,50.70
2018-06-14T17:45:47.856Z,50.90
2018-06-14T17:48:16.391Z,51.90
2018-06-14T17:50:45.008Z,51.40
2018-06-14T17:53:13.549Z,51.40
2018-06-14T17:55:42.094Z,51.30
2018-06-14T17:58:10.646Z,52.50
2018-06-14T18:00:39.182Z,51.70
2018-06-14T18:03:07.776Z,52.60
2018-06-14T18:05:36.303Z,52.40
2018-06-14T18:08:04.856Z,54.20
2018-06-14T18:10:33.383Z,53.50
2018-06-14T18:13:01.932Z,54.40
2018-06-14T18:15:30.441Z,55.30
2018-06-14T18:17:58.978Z,56.40
2018-06-14T18:20:29.024Z,57.20
2018-06-14T18:22:58.098Z,58.00
2018-06-14T18:25:26.637Z,57.80
2018-06-14T18:27:55.195Z,58.20
2018-06-14T18:30:23.737Z,59.60
2018-06-14T18:32:52.292Z,60.40
2018-06-14T18:35:22.837Z,60.00
2018-06-14T18:37:51.695Z,60.20
2018-06-14T18:40:20.295Z,61.20
2018-06-14T18:42:49.089Z,62.20
2018-06-14T18:45:18.150Z,62.40
2018-06-14T18:47:47.357Z,62.40
2018-06-14T18:50:15.860Z,63.00
2018-06-14T18:52:44.447Z,64.70
2018-06-14T18:55:13.286Z,65.20
2018-06-14T18:57:41.855Z,66.20
2018-06-14T19:00:10.431Z,66.50
2018-06-14T19:02:38.976Z,67.00
2018-06-14T19:05:07.474Z,67.70
2018-06-14T19:07:36.050Z,68.20
2018-06-14T19:10:04.698Z,68.70
2018-06-14T19:12:35.531Z,69.40
2018-06-14T19:15:04.111Z,69.90
2018-06-14T19:17:32.645Z,70.40
2018-06-14T19:20:01.187Z,70.60
2018-06-14T19:22:33.309Z,70.90
2018-06-14T19:25:02.038Z,71.40
2018-06-14T19:27:30.573Z,71.70
2018-06-14T19:30:03.522Z,72.00
2018-06-14T19:32:32.053Z,72.10
2018-06-14T19:35:00.597Z,72.60
2018-06-14T19:37:35.702Z,73.60
2018-06-14T19:40:04.391Z,73.80
2018-06-14T19:42:32.952Z,74.10
2018-06-14T19:45:01.482Z,74.50
2018-06-14T19:47:30.153Z,75.10
2018-06-14T19:50:02.866Z,75.10
2018-06-14T19:52:36.131Z,75.10
2018-06-14T19:55:04.739Z,75.40
2018-06-14T19:57:33.226Z,75.50
2018-06-14T20:00:01.731Z,75.70
2018-06-14T20:02:30.226Z,76.20
2018-06-14T20:04:58.767Z,76.50
2018-06-14T20:07:28.174Z,76.60
2018-06-14T20:09:56.710Z,77.00
2018-06-14T20:12:25.187Z,77.30
2018-06-14T20:14:53.709Z,77.60
2018-06-14T20:17:22.268Z,78.20
2018-06-14T20:19:50.787Z,78.40
2018-06-14T20:22:19.275Z,78.20
2018-06-14T20:24:47.883Z,78.20
2018-06-14T20:27:16.431Z,78.10
2018-06-14T20:29:44.970Z,78.10
2018-06-14T20:32:13.495Z,78.40
2018-06-14T20:34:42.005Z,78.30
2018-06-14T20:37:10.603Z,78.50
2018-06-14T20:39:39.130Z,78.70
2018-06-14T20:42:07.747Z,78.80
2018-06-14T20:44:36.246Z,79.00
2018-06-14T20:47:04.762Z,79.20
2018-06-14T20:49:33.299Z,79.60
2018-06-14T20:52:01.823Z,79.70
2018-06-14T20:54:30.394Z,79.70
2018-06-14T20:56:58.898Z,79.80
2018-06-14T20:59:27.438Z,80.30
2018-06-14T21:01:55.966Z,80.10
2018-06-14T21:04:24.566Z,80.80
2018-06-14T21:06:53.075Z,80.90
2018-06-14T21:09:21.628Z,80.80
2018-06-14T21:11:50.152Z,81.30
2018-06-14T21:14:18.658Z,81.60
2018-06-14T21:16:47.201Z,81.70
2018-06-14T21:19:15.783Z,81.50
2018-06-14T21:21:44.270Z,81.40
2018-06-14T21:24:12.822Z,81.40
2018-06-14T21:26:41.383Z,81.80
2018-06-14T21:29:09.922Z,82.10
2018-06-14T21:31:38.440Z,82.10
2018-06-14T21:34:07.042Z,82.20
2018-06-14T21:36:35.581Z,82.50
2018-06-14T21:39:05.817Z,82.50
2018-06-14T21:41:34.336Z,82.40
2018-06-14T21:44:03.054Z,82.70
2018-06-14T21:46:31.898Z,82.80
2018-06-14T21:49:00.395Z,82.90
2018-06-14T21:51:28.893Z,82.60
2018-06-14T21:53:57.447Z,82.90
2018-06-14T21:56:25.958Z,83.00
2018-06-14T21:58:54.518Z,83.20
2018-06-14T22:01:23.098Z,83.30
2018-06-14T22:03:59.154Z,83.40
2018-06-14T22:06:27.826Z,83.10
2018-06-14T22:08:56.435Z,83.20
2018-06-14T22:11:25.008Z,83.30
2018-06-14T22:13:53.629Z,83.80
2018-06-14T22:16:22.315Z,84.40
2018-06-14T22:18:50.854Z,84.20
2018-06-14T22:21:19.379Z,84.70
2018-06-14T22:23:47.903Z,84.50
2018-06-14T22:26:16.437Z,84.50
2018-06-14T22:28:44.991Z,84.70
2018-06-14T22:31:13.516Z,84.60
2018-06-14T22:33:53.265Z,84.80
2018-06-14T22:36:21.802Z,84.80
2018-06-14T22:41:18.514Z,84.80
2018-06-14T22:43:47.062Z,85.00
2018-06-14T22:46:15.577Z,85.00
2018-06-14T22:48:44.198Z,85.00
2018-06-14T22:51:18.507Z,85.20
2018-06-14T22:53:47.285Z,85.10
2018-06-14T22:56:15.817Z,85.50
2018-06-14T22:58:44.489Z,85.40
2018-06-14T23:01:45.712Z,85.50
2018-06-14T23:04:18.591Z,85.20
2018-06-14T23:06:47.164Z,85.30
2018-06-14T23:10:27.425Z,85.10
2018-06-14T23:12:55.931Z,85.60
2018-06-14T23:15:24.443Z,85.90
2018-06-14T23:17:53.148Z,86.00
2018-06-14T23:20:22.768Z,85.70
2018-06-14T23:22:52.665Z,85.80
2018-06-14T23:25:22.213Z,85.50
2018-06-14T23:27:50.734Z,85.60
2018-06-14T23:30:19.431Z,85.50
2018-06-14T23:32:48.038Z,85.60
2018-06-14T23:35:17.185Z,85.80
2018-06-14T23:37:45.742Z,86.10
2018-06-14T23:40:14.269Z,86.10
2018-06-14T23:42:42.834Z,85.80
2018-06-14T23:45:11.353Z,86.10
2018-06-14T23:47:39.888Z,86.10
2018-06-14T23:50:08.402Z,86.10
2018-06-14T23:52:36.947Z,86.20
2018-06-14T23:55:05.494Z,86.50
2018-06-14T23:57:34.073Z,86.90
